Time;durP1;ratioP1;P1;durP2;ratioP2;P2;SDS_P1;SDS_P2;PMS_P1;PMS_P2;Temp;Humidity;BMP_temperature;BMP_pressure;BME280_temperature;BME280_humidity;BME280_pressure;Samples;Min_cycle;Max_cycle;Signal;HPM_P1;HPM_P2
2021/05/21 00:02:10;;;;;;;;;;;;;;;23.93;58.74;100787.50;5030343;28;883;-76
2021/05/21 00:04:35;;;;;;;;;;;;;;;23.94;58.89;100791.03;5031287;28;967;-76
2021/05/21 00:07:00;;;;;;;;;;;;;;;23.95;59.04;100792.69;5031191;28;942;-76
2021/05/21 00:09:26;;;;;;;;;;;;;;;23.94;58.84;100796.53;5030960;28;889;-75
2021/05/21 00:11:51;;;;;;;;;;;;;;;23.93;59.10;100800.44;5031231;28;1032;-75
2021/05/21 00:14:18;;;;;;;;;;;;;;;23.93;59.54;100804.00;5030662;28;805;-75
2021/05/21 00:16:43;;;;;;;;;;;;;;;23.93;59.27;100798.50;5030374;28;940;-75
2021/05/21 00:19:09;;;;;;;;;;;;;;;23.96;59.20;100790.72;5030923;28;1874;-76
2021/05/21 00:21:34;;;;;;;;;;;;;;;23.96;59.13;100794.28;5031260;28;1010;-76
2021/05/21 00:23:59;;;;;;;;;;;;;;;23.96;59.44;100796.25;5047701;28;1340;-79
2021/05/21 00:26:25;;;;;;;;;;;;;;;23.96;59.33;100788.78;5052144;28;949;-76
2021/05/21 00:28:50;;;;;;;;;;;;;;;23.94;59.70;100774.53;5050500;28;932;-76
2021/05/21 00:31:15;;;;;;;;;;;;;;;23.95;59.85;100776.19;5050245;28;905;-75
2021/05/21 00:33:40;;;;;;;;;;;;;;;23.96;59.67;100786.03;5050622;28;916;-75
2021/05/21 00:36:06;;;;;;;;;;;;;;;23.95;59.45;100784.44;5050551;28;840;-75
2021/05/21 00:38:31;;;;;;;;;;;;;;;23.96;59.40;100769.53;5050216;28;1906;-75
2021/05/21 00:40:58;;;;;;;;;;;;;;;23.97;59.43;100775.88;5052200;28;842;-82
2021/05/21 00:43:23;;;;;;;;;;;;;;;23.96;59.31;100772.28;5034777;28;1194;-83
2021/05/21 00:45:49;;;;;;;;;;;;;;;24.03;59.98;100760.84;5051340;28;854;-75
2021/05/21 00:48:14;;;;;;;;;;;;;;;23.98;59.20;100767.28;5033226;28;2049;-74
2021/05/21 00:50:39;;;;;;;;;;;;;;;23.96;59.24;100750.28;5019948;28;1266;-74
2021/05/21 00:53:05;;;;;;;;;;;;;;;23.97;58.77;100751.91;5009800;28;846;-74
2021/05/21 00:55:31;;;;;;;;;;;;;;;23.96;59.03;100739.25;5010560;28;1103;-74
2021/05/21 00:57:57;;;;;;;;;;;;;;;23.97;58.91;100734.59;5047015;28;1886;-74
2021/05/21 01:00:22;;;;;;;;;;;;;;;23.96;58.85;100742.03;5049534;28;1199;-74
2021/05/21 01:02:47;;;;;;;;;;;;;;;24.04;58.70;100743.19;5040713;28;2011;-75
2021/05/21 01:05:13;;;;;;;;;;;;;;;23.99;58.77;100746.91;5028755;28;818;-76
2021/05/21 01:07:38;;;;;;;;;;;;;;;23.99;58.84;100751.59;5031347;28;1315;-76
2021/05/21 01:10:04;;;;;;;;;;;;;;;24.01;58.91;100757.59;5030900;28;879;-75
2021/05/21 01:12:29;;;;;;;;;;;;;;;24.00;58.65;100761.47;5030638;28;890;-76
2021/05/21 01:14:55;;;;;;;;;;;;;;;23.99;58.98;100755.16;5030012;28;801;-75
2021/05/21 01:17:22;;;;;;;;;;;;;;;23.98;58.94;100761.78;5012904;28;1185;-75
2021/05/21 01:19:47;;;;;;;;;;;;;;;23.98;58.87;100750.75;5029833;28;1870;-75
2021/05/21 01:22:13;;;;;;;;;;;;;;;23.97;59.14;100743.66;5030198;28;1113;-76
2021/05/21 01:24:39;;;;;;;;;;;;;;;23.98;58.77;100749.97;5030507;28;799;-75
2021/05/21 01:27:05;;;;;;;;;;;;;;;23.98;58.93;100750.75;5030381;28;917;-76
2021/05/21 01:29:31;;;;;;;;;;;;;;;23.98;59.01;100761.78;5029534;28;840;-76
2021/05/21 01:31:56;;;;;;;;;;;;;;;24.01;59.17;100768.59;5031370;28;866;-84
2021/05/21 01:34:22;;;;;;;;;;;;;;;23.98;59.14;100777.47;5032151;28;846;-81
2021/05/21 01:36:47;;;;;;;;;;;;;;;23.98;59.13;100791.22;5031713;28;1490;-83
2021/05/21 01:39:13;;;;;;;;;;;;;;;23.98;59.08;100786.53;5029269;28;1972;-83
2021/05/21 01:41:39;;;;;;;;;;;;;;;23.97;58.82;100787.69;5014385;28;1359;-83
2021/05/21 01:44:05;;;;;;;;;;;;;;;23.96;59.02;100783.28;5031389;28;1133;-83
2021/05/21 01:46:31;;;;;;;;;;;;;;;23.95;59.21;100786.38;5032326;28;875;-83
2021/05/21 01:48:56;;;;;;;;;;;;;;;23.95;59.03;100784.44;5011439;28;1341;-83
2021/05/21 01:51:22;;;;;;;;;;;;;;;23.95;58.99;100787.19;5032057;28;878;-79
2021/05/21 01:53:47;;;;;;;;;;;;;;;23.96;58.80;100804.50;5031480;28;1826;-79
2021/05/21 01:56:12;;;;;;;;;;;;;;;23.98;58.78;100800.28;5031714;28;1246;-79
2021/05/21 01:58:38;;;;;;;;;;;;;;;23.97;58.81;100790.44;5031348;28;1858;-83
2021/05/21 02:01:03;;;;;;;;;;;;;;;23.95;58.58;100795.44;5031875;28;969;-82
2021/05/21 02:03:29;;;;;;;;;;;;;;;23.93;58.56;100803.19;5031739;28;1262;-82
2021/05/21 02:05:56;;;;;;;;;;;;;;;23.91;58.18;100809.00;5031834;28;783;-82
2021/05/21 02:08:22;;;;;;;;;;;;;;;23.91;58.43;100810.94;5014120;28;1222;-80
2021/05/21 02:10:47;;;;;;;;;;;;;;;23.91;58.49;100805.44;5014202;28;1282;-79
2021/05/21 02:13:12;;;;;;;;;;;;;;;23.89;58.22;100797.50;5031372;28;1570;-78
2021/05/21 02:15:37;;;;;;;;;;;;;;;23.89;58.40;100785.69;5031734;28;1588;-79
2021/05/21 02:18:03;;;;;;;;;;;;;;;23.88;58.14;100797.81;5031089;28;1935;-79
2021/05/21 02:20:28;;;;;;;;;;;;;;;23.88;58.01;100793.13;5019444;28;859;-84
2021/05/21 02:22:54;;;;;;;;;;;;;;;23.90;58.87;100790.06;5017558;28;1229;-82
2021/05/21 02:25:19;;;;;;;;;;;;;;;23.91;57.54;100800.75;5035089;28;1258;-83
2021/05/21 02:27:44;;;;;;;;;;;;;;;23.91;57.90;100798.00;5016915;28;1313;-78
2021/05/21 02:30:10;;;;;;;;;;;;;;;23.89;57.80;100789.25;5016422;28;1951;-77
2021/05/21 02:32:36;;;;;;;;;;;;;;;23.90;57.70;100793.63;5017990;28;847;-82
2021/05/21 02:35:02;;;;;;;;;;;;;;;23.92;57.42;100793.28;4997820;28;1300;-84
2021/05/21 02:37:27;;;;;;;;;;;;;;;23.97;58.09;100792.38;5014757;28;1485;-78
2021/05/21 02:39:52;;;;;;;;;;;;;;;23.96;58.33;100791.53;5013513;28;1965;-74
2021/05/21 02:42:18;;;;;;;;;;;;;;;23.97;58.48;100801.44;5014262;28;826;-78
2021/05/21 02:44:43;;;;;;;;;;;;;;;23.97;58.22;100806.94;5014869;28;1022;-76
2021/05/21 02:47:08;;;;;;;;;;;;;;;23.96;58.27;100816.28;5013887;28;918;-76
2021/05/21 02:49:34;;;;;;;;;;;;;;;23.95;58.44;100822.13;5013717;28;1199;-76
2021/05/21 02:52:00;;;;;;;;;;;;;;;23.94;58.77;100826.81;5013588;28;855;-76
2021/05/21 02:54:25;;;;;;;;;;;;;;;23.96;58.59;100826.50;5028441;28;1422;-75
2021/05/21 02:56:50;;;;;;;;;;;;;;;23.96;58.49;100829.25;5013068;28;870;-75
2021/05/21 02:59:16;;;;;;;;;;;;;;;23.98;58.40;100829.75;5012346;28;1871;-76
2021/05/21 03:01:41;;;;;;;;;;;;;;;23.96;58.48;100841.06;5013849;28;2979;-75
2021/05/21 03:04:06;;;;;;;;;;;;;;;23.96;58.57;100835.56;5033391;28;949;-77
2021/05/21 03:06:32;;;;;;;;;;;;;;;23.94;58.65;100826.81;5034157;28;905;-80
2021/05/21 03:08:57;;;;;;;;;;;;;;;23.95;58.83;100822.13;5034057;28;1250;-80
2021/05/21 03:11:22;;;;;;;;;;;;;;;23.97;58.89;100817.13;5033664;28;1338;-77
2021/05/21 03:13:48;;;;;;;;;;;;;;;23.97;58.85;100817.13;5015315;28;1735;-76
2021/05/21 03:16:13;;;;;;;;;;;;;;;23.96;58.90;100816.28;5033039;28;1403;-75
2021/05/21 03:18:38;;;;;;;;;;;;;;;23.96;58.75;100821.81;5033338;28;1874;-77
2021/05/21 03:21:04;;;;;;;;;;;;;;;23.95;58.53;100822.94;5026233;28;1811;-77
2021/05/21 03:23:29;;;;;;;;;;;;;;;23.95;58.73;100831.19;5031232;28;1099;-79
2021/05/21 03:25:55;;;;;;;;;;;;;;;23.97;58.50;100830.88;5033210;28;870;-75
2021/05/21 03:28:20;;;;;;;;;;;;;;;23.98;58.40;100835.25;5032565;28;1040;-76
2021/05/21 03:30:46;;;;;;;;;;;;;;;24.03;58.90;100833.19;5027446;28;2004;-72
2021/05/21 03:33:11;;;;;;;;;;;;;;;24.05;58.46;100830.94;5018891;28;1620;-75
2021/05/21 03:35:37;;;;;;;;;;;;;;;24.10;57.85;100838.22;5012256;28;930;-74
2021/05/21 03:38:03;;;;;;;;;;;;;;;24.17;57.46;100843.31;5010442;28;1906;-74
2021/05/21 03:40:28;;;;;;;;;;;;;;;24.20;56.91;100843.44;5018975;28;1701;-73
2021/05/21 03:42:54;;;;;;;;;;;;;;;24.23;56.88;100844.78;5022928;28;989;-73
2021/05/21 03:45:19;;;;;;;;;;;;;;;24.25;56.82;100854.34;5017057;28;1960;-72
2021/05/21 03:47:45;;;;;;;;;;;;;;;24.07;47.38;100858.13;5020630;28;997;-71
2021/05/21 03:50:11;;;;;;;;;;;;;;;24.08;50.63;100863.31;5031029;28;2030;-72
2021/05/21 03:52:36;;;;;;;;;;;;;;;24.09;51.67;100870.44;5014082;28;1747;-71
2021/05/21 03:55:03;;;;;;;;;;;;;;;24.09;52.53;100873.19;5022192;28;898;-71
2021/05/21 03:57:29;;;;;;;;;;;;;;;24.05;53.21;100879.66;5030095;28;839;-71
2021/05/21 03:59:54;;;;;;;;;;;;;;;24.01;53.76;100873.16;5026950;28;1878;-71
2021/05/21 04:02:19;;;;;;;;;;;;;;;23.95;53.52;100872.47;5027403;28;1711;-71
2021/05/21 04:04:45;;;;;;;;;;;;;;;23.95;53.69;100877.16;5018570;28;1614;-72
2021/05/21 04:07:10;;;;;;;;;;;;;;;23.96;53.17;100879.56;5028106;28;1364;-71
2021/05/21 04:09:35;;;;;;;;;;;;;;;23.95;52.82;100882.66;5022089;28;1480;-71
2021/05/21 04:12:01;;;;;;;;;;;;;;;23.91;53.49;100897.03;5025660;28;1627;-71
2021/05/21 04:14:26;;;;;;;;;;;;;;;23.88;53.94;100894.09;5026030;28;1505;-71
2021/05/21 04:16:51;;;;;;;;;;;;;;;23.93;54.01;100892.03;5023081;28;1448;-72
2021/05/21 04:19:17;;;;;;;;;;;;;;;23.88;51.10;100894.88;5021982;28;1882;-71
2021/05/21 04:21:42;;;;;;;;;;;;;;;23.84;54.49;100896.63;5020797;28;1635;-72
2021/05/21 04:24:08;;;;;;;;;;;;;;;23.83;52.80;100895.03;5027953;28;1292;-71
2021/05/21 04:26:33;;;;;;;;;;;;;;;23.85;54.18;100897.47;5027514;28;1450;-71
2021/05/21 04:28:58;;;;;;;;;;;;;;;23.81;54.86;100897.28;5029217;28;1278;-71
2021/05/21 04:31:25;;;;;;;;;;;;;;;23.75;55.30;100912.25;5029292;28;1292;-71
2021/05/21 04:33:53;;;;;;;;;;;;;;;23.78;55.60;100922.66;5025113;28;1361;-71
2021/05/21 04:36:18;;;;;;;;;;;;;;;23.79;55.59;100916.03;5020699;28;1417;-71
2021/05/21 04:38:43;;;;;;;;;;;;;;;23.82;55.91;100911.84;5020042;28;2017;-71
2021/05/21 04:41:09;;;;;;;;;;;;;;;23.79;55.95;100923.47;5022981;28;1450;-72
2021/05/21 04:43:34;;;;;;;;;;;;;;;23.79;56.27;100923.47;5023333;28;1774;-73
2021/05/21 04:46:01;;;;;;;;;;;;;;;23.75;56.46;100927.94;5027547;28;1230;-73
2021/05/21 04:48:26;;;;;;;;;;;;;;;23.78;56.14;100941.91;5028129;28;1281;-73
2021/05/21 04:50:53;;;;;;;;;;;;;;;23.77;56.30;100942.19;5025071;28;1851;-73
2021/05/21 04:53:18;;;;;;;;;;;;;;;23.70;56.49;100951.69;5020095;28;1611;-73
2021/05/21 04:55:43;;;;;;;;;;;;;;;23.72;56.70;100954.13;5015694;28;1659;-73
2021/05/21 04:58:09;;;;;;;;;;;;;;;23.73;56.62;100953.81;5020544;28;1953;-73
2021/05/21 05:00:35;;;;;;;;;;;;;;;23.72;56.63;100965.94;5016890;28;1720;-73
2021/05/21 05:03:04;;;;;;;;;;;;;;;23.68;49.97;100961.34;5027892;28;819;-73
2021/05/21 05:05:30;;;;;;;;;;;;;;;23.68;52.20;100959.44;5028371;28;846;-70
2021/05/21 05:07:55;;;;;;;;;;;;;;;23.66;52.75;100964.44;5027620;28;928;-71
2021/05/21 05:10:20;;;;;;;;;;;;;;;23.68;54.78;100975.94;5027529;28;1681;-71
2021/05/21 05:12:45;;;;;;;;;;;;;;;23.70;54.70;100973.69;5018215;28;1554;-72
2021/05/21 05:15:11;;;;;;;;;;;;;;;23.72;53.89;100976.94;5016323;28;1758;-71
2021/05/21 05:17:36;;;;;;;;;;;;;;;23.72;54.74;100970.63;5005839;28;1695;-72
2021/05/21 05:20:02;;;;;;;;;;;;;;;23.67;55.26;100965.25;5021893;28;1883;-74
2021/05/21 05:22:27;;;;;;;;;;;;;;;23.66;55.48;100969.09;5025553;28;1266;-75
2021/05/21 05:24:53;;;;;;;;;;;;;;;23.66;55.95;100969.09;5027853;28;795;-74
2021/05/21 05:27:18;;;;;;;;;;;;;;;23.65;56.13;100976.56;5027894;28;830;-74
2021/05/21 05:29:47;;;;;;;;;;;;;;;23.66;55.67;100980.09;5024675;28;1593;-71
2021/05/21 05:32:13;;;;;;;;;;;;;;;23.70;56.92;100979.19;5026210;28;1219;-75
2021/05/21 05:34:38;;;;;;;;;;;;;;;23.78;57.55;100985.09;5027813;28;1547;-78
2021/05/21 05:37:03;;;;;;;;;;;;;;;23.89;58.69;100992.81;5027711;28;1456;-70
2021/05/21 05:39:28;;;;;;;;;;;;;;;23.94;58.53;100989.13;5028006;28;1902;-73
2021/05/21 05:41:54;;;;;;;;;;;;;;;23.89;58.66;100989.25;5016194;28;2113;-72
2021/05/21 05:44:20;;;;;;;;;;;;;;;23.86;58.15;100985.16;5018077;28;1897;-72
2021/05/21 05:46:45;;;;;;;;;;;;;;;23.85;57.88;100978.06;5027579;28;1569;-72
2021/05/21 05:49:11;;;;;;;;;;;;;;;23.85;58.87;100977.25;5028414;28;1383;-74
2021/05/21 05:51:36;;;;;;;;;;;;;;;23.84;58.03;100968.16;5026059;28;1642;-74
2021/05/21 05:54:02;;;;;;;;;;;;;;;23.85;58.59;100974.50;5028650;28;1148;-75
2021/05/21 05:56:27;;;;;;;;;;;;;;;23.85;58.58;100958.00;5027946;28;2377;-72
2021/05/21 05:58:52;;;;;;;;;;;;;;;23.86;58.76;100960.41;5031114;28;1882;-74
2021/05/21 06:01:18;;;;;;;;;;;;;;;23.86;59.14;100959.59;5029814;28;1830;-72
2021/05/21 06:03:43;;;;;;;;;;;;;;;23.86;58.84;100962.34;5029566;28;1233;-71
2021/05/21 06:06:08;;;;;;;;;;;;;;;23.84;58.25;100959.91;5030046;28;1287;-72
2021/05/21 06:08:34;;;;;;;;;;;;;;;23.84;57.33;100961.84;5029781;28;1219;-71
2021/05/21 06:10:59;;;;;;;;;;;;;;;23.82;56.96;100969.59;5027081;28;1713;-73
2021/05/21 06:13:26;;;;;;;;;;;;;;;23.82;57.13;100977.84;5029712;28;1256;-71
2021/05/21 06:15:52;;;;;;;;;;;;;;;23.85;56.00;100988.25;5030448;28;1404;-72
2021/05/21 06:18:17;;;;;;;;;;;;;;;23.84;57.40;100981.91;5030776;28;1870;-73
2021/05/21 06:20:42;;;;;;;;;;;;;;;23.85;57.45;100989.06;5030971;28;1278;-73
2021/05/21 06:23:08;;;;;;;;;;;;;;;23.86;56.68;100984.38;5030900;28;1260;-73
2021/05/21 06:28:19;;;;;;;;;;;;;;;23.86;57.17;100993.41;5031170;28;1240;-71
2021/05/21 06:30:44;;;;;;;;;;;;;;;23.86;57.75;100987.91;5030533;28;1373;-73
2021/05/21 06:33:10;;;;;;;;;;;;;;;23.86;58.03;100992.63;5030893;28;1213;-77
2021/05/21 06:35:35;;;;;;;;;;;;;;;23.85;58.58;100989.06;5033452;28;850;-75
2021/05/21 06:38:01;;;;;;;;;;;;;;;23.86;57.91;100989.88;5032722;28;1971;-74
2021/05/21 06:40:26;;;;;;;;;;;;;;;23.84;54.19;100986.59;5032804;28;886;-74
2021/05/21 06:42:51;;;;;;;;;;;;;;;23.82;53.61;100986.91;5025083;28;2063;-74
2021/05/21 06:45:17;;;;;;;;;;;;;;;23.81;53.76;100976.25;5018152;28;1458;-74
2021/05/21 06:47:43;;;;;;;;;;;;;;;23.75;52.33;100982.97;5020486;28;957;-74
2021/05/21 06:50:08;;;;;;;;;;;;;;;23.75;52.09;100985.72;5016680;28;814;-74
2021/05/21 06:52:34;;;;;;;;;;;;;;;23.76;52.47;100979.88;5011338;28;804;-74
2021/05/21 06:54:59;;;;;;;;;;;;;;;23.74;50.95;100984.88;4994207;28;1293;-74
2021/05/21 06:57:25;;;;;;;;;;;;;;;23.66;49.85;100975.44;5012476;28;836;-74
2021/05/21 06:59:50;;;;;;;;;;;;;;;23.63;49.71;100967.78;5017911;28;1874;-74
2021/05/21 07:02:15;;;;;;;;;;;;;;;23.63;49.31;100965.03;5031874;28;756;-74
2021/05/21 07:04:41;;;;;;;;;;;;;;;23.66;51.69;100960.84;5031895;28;890;-74
2021/05/21 07:07:06;;;;;;;;;;;;;;;23.67;51.83;100962.50;5030960;28;882;-74
2021/05/21 07:09:31;;;;;;;;;;;;;;;23.62;49.81;100968.91;5031415;28;940;-74
2021/05/21 07:11:57;;;;;;;;;;;;;;;23.63;50.62;100970.53;5031320;28;851;-74
2021/05/21 07:14:22;;;;;;;;;;;;;;;23.65;51.80;100968.31;5031119;28;1342;-74
2021/05/21 07:16:48;;;;;;;;;;;;;;;23.61;49.22;100970.03;5031080;28;870;-74
2021/05/21 07:19:17;;;;;;;;;;;;;;;23.61;50.17;100967.28;5031121;28;1937;-74
2021/05/21 07:21:42;;;;;;;;;;;;;;;23.59;50.19;100960.47;5031165;28;834;-74
2021/05/21 07:24:08;;;;;;;;;;;;;;;23.58;49.80;100964.34;5030651;28;1133;-74
2021/05/21 07:26:33;;;;;;;;;;;;;;;23.54;48.71;100961.38;5030856;28;1168;-74
2021/05/21 07:28:59;;;;;;;;;;;;;;;23.53;48.84;100970.78;5031593;28;977;-74
2021/05/21 07:31:27;;;;;;;;;;;;;;;23.55;50.35;100965.78;5024757;28;1423;-74
2021/05/21 07:33:55;;;;;;;;;;;;;;;23.56;50.47;100980.34;4995594;28;1312;-74
2021/05/21 07:36:23;;;;;;;;;;;;;;;23.55;51.56;100982.28;5011263;28;807;-74
2021/05/21 07:38:48;;;;;;;;;;;;;;;23.55;52.29;100975.97;5012474;28;1914;-74
2021/05/21 07:41:14;;;;;;;;;;;;;;;23.53;52.43;100979.03;4994020;28;2076;-74
2021/05/21 07:43:39;;;;;;;;;;;;;;;23.50;50.40;100977.72;5019813;28;945;-74
2021/05/21 07:46:05;;;;;;;;;;;;;;;23.51;52.88;100978.53;5020703;28;1222;-74
2021/05/21 07:48:30;;;;;;;;;;;;;;;23.46;50.44;100981.38;5019256;28;1982;-74
2021/05/21 07:50:55;;;;;;;;;;;;;;;23.47;51.12;100986.56;5024973;28;1182;-77
2021/05/21 07:53:21;;;;;;;;;;;;;;;23.52;51.64;100983.72;5032107;28;986;-71
2021/05/21 07:55:47;;;;;;;;;;;;;;;23.56;53.16;100988.59;5032087;28;897;-70
2021/05/21 07:58:14;;;;;;;;;;;;;;;23.55;53.40;100990.53;5031976;28;1866;-71
2021/05/21 08:00:39;;;;;;;;;;;;;;;23.58;53.72;100992.66;5031249;28;1122;-75
2021/05/21 08:03:05;;;;;;;;;;;;;;;23.61;53.13;100991.25;5031798;28;921;-71
2021/05/21 08:05:31;;;;;;;;;;;;;;;23.61;54.57;101003.03;5031520;28;1756;-71
2021/05/21 08:07:56;;;;;;;;;;;;;;;23.63;56.06;101006.28;5031640;28;983;-71
2021/05/21 08:10:21;;;;;;;;;;;;;;;23.65;55.68;101009.53;5031674;28;938;-72
2021/05/21 08:12:46;;;;;;;;;;;;;;;23.64;55.89;101005.19;5031023;28;885;-71
2021/05/21 08:15:12;;;;;;;;;;;;;;;23.57;53.81;101015.78;5031082;28;1262;-73
2021/05/21 08:17:38;;;;;;;;;;;;;;;23.55;54.01;101004.28;5031571;28;1156;-74
2021/05/21 08:20:03;;;;;;;;;;;;;;;23.54;54.62;101010.88;5030335;28;1874;-74
2021/05/21 08:22:29;;;;;;;;;;;;;;;23.51;52.69;101028.81;5031307;28;1588;-76
2021/05/21 08:24:54;;;;;;;;;;;;;;;23.51;53.30;101012.31;5031585;28;1427;-77
2021/05/21 08:27:20;;;;;;;;;;;;;;;23.51;55.45;101014.25;5013333;28;2155;-71
2021/05/21 08:29:45;;;;;;;;;;;;;;;23.59;55.99;101019.03;5029454;28;1260;-74
2021/05/21 08:32:10;;;;;;;;;;;;;;;23.62;54.92;101023.09;5030367;28;1265;-71
2021/05/21 08:34:36;;;;;;;;;;;;;;;23.61;54.60;101026.97;5029947;28;1405;-74
2021/05/21 08:37:01;;;;;;;;;;;;;;;23.62;56.15;101028.59;5028911;28;1536;-71
2021/05/21 08:39:27;;;;;;;;;;;;;;;23.63;56.35;101033.78;5026642;28;1961;-71
2021/05/21 08:41:54;;;;;;;;;;;;;;;23.65;54.45;101042.56;5028152;28;1171;-74
2021/05/21 08:44:19;;;;;;;;;;;;;;;23.62;55.94;101032.16;5020079;28;1809;-72
2021/05/21 08:46:44;;;;;;;;;;;;;;;23.60;52.12;101031.66;5026331;28;1884;-71
2021/05/21 08:49:10;;;;;;;;;;;;;;;23.62;54.68;101036.84;5025679;28;1914;-70
2021/05/21 08:51:35;;;;;;;;;;;;;;;23.58;51.65;101041.31;5019923;28;877;-72
2021/05/21 08:54:00;;;;;;;;;;;;;;;23.59;54.52;101041.03;5023576;28;1491;-76
2021/05/21 08:56:26;;;;;;;;;;;;;;;23.51;54.48;101028.00;5029685;28;1547;-72
2021/05/21 08:58:52;;;;;;;;;;;;;;;23.62;55.04;101048.66;5029988;28;1945;-71
2021/05/21 09:01:18;;;;;;;;;;;;;;;23.64;52.72;101053.84;5023291;28;2065;-71
2021/05/21 09:03:45;;;;;;;;;;;;;;;23.62;54.74;101039.59;5030172;28;1475;-71
2021/05/21 09:08:46;;;;;;;;;;;;;;;23.68;55.87;101044.69;5028088;28;1934;-75
2021/05/21 09:11:28;;;;;;;;;;;;;;;23.74;57.12;101037.13;5018534;28;2532;-74
2021/05/21 09:14:01;;;;;;;;;;;;;;;23.69;53.79;101049.06;5022162;28;1848;-74
2021/05/21 09:16:27;;;;;;;;;;;;;;;23.72;56.88;101040.22;5025762;28;2151;-75
2021/05/21 09:19:11;;;;;;;;;;;;;;;23.70;53.49;101044.38;5022588;28;1882;-76
2021/05/21 09:21:52;;;;;;;;;;;;;;;23.71;56.83;101037.75;5019598;28;1765;-74
2021/05/21 09:24:18;;;;;;;;;;;;;;;23.72;56.90;101036.63;5019650;28;1691;-72
2021/05/21 09:26:45;;;;;;;;;;;;;;;23.73;56.52;101028.06;5013598;28;1806;-78
2021/05/21 09:29:11;;;;;;;;;;;;;;;23.72;56.89;101029.22;5030350;28;1561;-78
2021/05/21 09:31:44;;;;;;;;;;;;;;;23.71;56.54;101018.50;5016764;28;834;-78
2021/05/21 09:34:09;;;;;;;;;;;;;;;23.71;56.00;101016.56;5017385;28;1511;-78
2021/05/21 09:36:36;;;;;;;;;;;;;;;23.72;56.35;101020.13;5020126;28;866;-78
2021/05/21 09:39:05;;;;;;;;;;;;;;;23.73;56.28;101028.06;5037158;28;1965;-78
2021/05/21 09:41:30;;;;;;;;;;;;;;;23.72;56.17;101022.88;5029691;28;1485;-78
2021/05/21 09:43:57;;;;;;;;;;;;;;;23.69;57.00;101032.56;5038189;28;1044;-78
2021/05/21 09:46:23;;;;;;;;;;;;;;;23.67;54.34;101029.31;5020008;28;1109;-78
2021/05/21 09:48:48;;;;;;;;;;;;;;;23.63;54.97;101030.25;5037305;28;2694;-78
2021/05/21 09:51:18;;;;;;;;;;;;;;;23.60;51.44;101034.41;5019869;28;1504;-78
2021/05/21 09:53:46;;;;;;;;;;;;;;;23.55;53.46;101034.53;5016123;28;2184;-78
2021/05/21 09:56:23;;;;;;;;;;;;;;;23.52;52.90;101040.63;5038220;28;838;-78
2021/05/21 09:58:48;;;;;;;;;;;;;;;23.47;51.34;101032.50;5035047;28;1956;-78
2021/05/21 10:01:14;;;;;;;;;;;;;;;23.45;51.32;101031.97;5018849;28;1092;-78
2021/05/21 10:03:44;;;;;;;;;;;;;;;23.44;49.90;101042.19;5033565;28;1101;-78
2021/05/21 10:06:10;;;;;;;;;;;;;;;23.39;49.71;101031.28;5029824;28;1255;-77
2021/05/21 10:08:38;;;;;;;;;;;;;;;23.36;49.28;101034.63;5024050;28;2724;-74
2021/05/21 10:11:04;;;;;;;;;;;;;;;23.34;48.24;101034.09;5016859;28;1490;-74
2021/05/21 10:13:30;;;;;;;;;;;;;;;23.38;48.73;101031.56;5034723;28;885;-74
2021/05/21 10:15:56;;;;;;;;;;;;;;;23.37;47.83;101033.50;5025274;28;1685;-74
2021/05/21 10:18:21;;;;;;;;;;;;;;;23.38;48.30;101042.56;5031620;28;1866;-74
2021/05/21 10:20:47;;;;;;;;;;;;;;;23.41;49.07;101039.22;5003880;28;11212;-74
2021/05/21 10:23:19;;;;;;;;;;;;;;;23.46;50.42;101045.44;5017937;28;1893;-74
2021/05/21 10:25:45;;;;;;;;;;;;;;;23.43;48.50;101048.78;5020295;28;1728;-74
2021/05/21 10:28:10;;;;;;;;;;;;;;;23.44;50.21;101044.09;5030708;28;803;-74
2021/05/21 10:30:36;;;;;;;;;;;;;;;23.48;51.45;101050.59;5018838;28;1670;-74
2021/05/21 10:33:29;;;;;;;;;;;;;;;23.50;51.62;101051.94;5013831;28;1248;-74
2021/05/21 10:36:12;;;;;;;;;;;;;;;23.49;50.43;101052.25;5018715;28;1738;-74
2021/05/21 10:38:38;;;;;;;;;;;;;;;23.45;50.98;101057.53;5024163;28;1971;-73
2021/05/21 10:41:11;;;;;;;;;;;;;;;23.38;49.44;101051.66;5024708;28;1795;-73
2021/05/21 10:43:46;;;;;;;;;;;;;;;23.39;50.49;101058.75;5016770;28;2714;-73
2021/05/21 10:46:18;;;;;;;;;;;;;;;23.33;51.18;101060.78;5013044;28;953;-73
2021/05/21 10:48:52;;;;;;;;;;;;;;;23.29;51.58;101068.00;5012803;28;1760;-73
2021/05/21 10:51:17;;;;;;;;;;;;;;;23.37;53.27;101066.50;5018439;28;1693;-73
2021/05/21 10:53:43;;;;;;;;;;;;;;;23.42;53.89;101071.91;5015610;28;1789;-73
2021/05/21 10:56:09;;;;;;;;;;;;;;;23.42;52.90;101079.31;5017386;28;1641;-73
2021/05/21 10:58:38;;;;;;;;;;;;;;;23.42;54.31;101080.16;5004560;28;2251;-73
2021/05/21 11:01:04;;;;;;;;;;;;;;;23.43;54.44;101073.53;5014024;28;1494;-73
2021/05/21 11:03:29;;;;;;;;;;;;;;;23.50;54.06;101078.59;5014949;28;1442;-73
2021/05/21 11:06:14;;;;;;;;;;;;;;;23.48;53.48;101078.94;5019139;28;1432;-73
2021/05/21 11:08:46;;;;;;;;;;;;;;;23.42;50.83;101082.06;5036681;28;11553;-73
2021/05/21 11:11:12;;;;;;;;;;;;;;;23.40;50.70;101081.56;5049966;28;1225;-73
2021/05/21 11:13:37;;;;;;;;;;;;;;;23.36;49.76;101092.34;5046276;28;1619;-73
2021/05/21 11:16:02;;;;;;;;;;;;;;;23.34;51.47;101078.09;5041912;28;1583;-73
2021/05/21 11:18:31;;;;;;;;;;;;;;;23.41;52.27;101085.94;5044870;28;1890;-73
2021/05/21 11:21:03;;;;;;;;;;;;;;;23.39;50.87;101094.50;5045994;28;1467;-73
2021/05/21 11:23:37;;;;;;;;;;;;;;;23.42;52.90;101090.31;5041457;28;1708;-73
2021/05/21 11:26:03;;;;;;;;;;;;;;;23.41;52.69;101094.19;5048036;28;1175;-73
2021/05/21 11:28:38;;;;;;;;;;;;;;;23.47;53.15;101092.97;5048692;28;1406;-73
2021/05/21 11:31:06;;;;;;;;;;;;;;;23.46;51.99;101088.59;5047797;28;1191;-73
2021/05/21 11:33:31;;;;;;;;;;;;;;;23.47;53.24;101091.03;5047814;28;1254;-73
2021/05/21 11:35:57;;;;;;;;;;;;;;;23.47;53.48;101096.53;5049217;28;1369;-73
2021/05/21 11:38:23;;;;;;;;;;;;;;;23.44;51.75;101104.56;5049238;28;1981;-73
2021/05/21 11:40:48;;;;;;;;;;;;;;;23.38;50.57;101100.28;5049821;28;1242;-73
2021/05/21 11:43:13;;;;;;;;;;;;;;;23.40;52.85;101106.28;5046995;28;2958;-72
2021/05/21 11:45:39;;;;;;;;;;;;;;;23.45;52.89;101111.72;5049289;28;1265;-72
2021/05/21 11:48:09;;;;;;;;;;;;;;;23.48;53.38;101113.84;5047958;28;1479;-72
2021/05/21 11:50:34;;;;;;;;;;;;;;;23.49;53.58;101110.78;5048858;28;1257;-71
2021/05/21 11:53:12;;;;;;;;;;;;;;;23.50;54.21;101120.69;5048548;28;1246;-72
2021/05/21 11:55:42;;;;;;;;;;;;;;;23.53;53.90;101111.81;5046734;28;1100;-71
2021/05/21 11:58:18;;;;;;;;;;;;;;;23.56;54.01;101109.56;5048983;28;1945;-73
2021/05/21 12:00:43;;;;;;;;;;;;;;;23.55;54.59;101108.75;5046837;28;1395;-72
2021/05/21 12:03:10;;;;;;;;;;;;;;;23.55;54.51;101113.44;5049203;28;1330;-72
2021/05/21 12:05:35;;;;;;;;;;;;;;;23.57;54.40;101108.47;5049179;28;1540;-74
2021/05/21 12:08:00;;;;;;;;;;;;;;;23.47;51.79;101107.53;5049573;28;1706;-71
2021/05/21 12:10:26;;;;;;;;;;;;;;;23.50;52.82;101111.59;5046180;28;1692;-71
2021/05/21 12:12:51;;;;;;;;;;;;;;;23.50;53.21;101114.34;5043130;28;3262;-71
2021/05/21 12:15:17;;;;;;;;;;;;;;;23.51;51.93;101114.03;5034103;28;1831;-72
2021/05/21 12:17:44;;;;;;;;;;;;;;;23.53;53.08;101116.50;5045304;28;2452;-72
2021/05/21 12:20:09;;;;;;;;;;;;;;;23.55;53.84;101125.25;5039168;28;1957;-72
2021/05/21 12:22:35;;;;;;;;;;;;;;;23.45;53.76;101103.47;5039811;28;1465;-71
2021/05/21 12:25:14;;;;;;;;;;;;;;;23.56;51.67;101134.31;5048071;28;1477;-71
2021/05/21 12:27:41;;;;;;;;;;;;;;;23.57;53.87;101130.44;5047030;28;1242;-72
2021/05/21 12:30:07;;;;;;;;;;;;;;;23.56;53.87;101135.13;5044424;28;2430;-73
2021/05/21 12:32:33;;;;;;;;;;;;;;;23.57;53.64;101141.44;5049644;28;936;-72
2021/05/21 12:34:59;;;;;;;;;;;;;;;23.57;53.41;101139.50;5049506;28;1204;-72
2021/05/21 12:37:24;;;;;;;;;;;;;;;23.54;53.76;101137.34;5047833;28;1250;-72
2021/05/21 12:39:50;;;;;;;;;;;;;;;23.58;53.98;101143.06;5049583;28;1968;-72
2021/05/21 12:42:16;;;;;;;;;;;;;;;23.56;52.64;101150.81;5049859;28;814;-74
2021/05/21 12:44:48;;;;;;;;;;;;;;;23.55;51.11;101147.25;5048746;28;1191;-73
2021/05/21 12:47:14;;;;;;;;;;;;;;;23.60;53.97;101149.06;5048529;28;1160;-73
2021/05/21 12:49:40;;;;;;;;;;;;;;;23.57;50.58;101153.25;5049158;28;1130;-72
2021/05/21 12:52:06;;;;;;;;;;;;;;;23.59;51.59;101162.03;5049451;28;847;-72